Time;durP1;ratioP1;P1;durP2;ratioP2;P2;SDS_P1;SDS_P2;PMS_P1;PMS_P2;Temp;Humidity;BMP_temperature;BMP_pressure;BME280_temperature;BME280_humidity;BME280_pressure;Samples;Min_cycle;Max_cycle;Signal;HPM_P1;HPM_P2
2023/12/28 00:00:58;;;;;;;5.05;3.97;;;0.20;99.90;;;;;;4989232;28;20035;-70
2023/12/28 00:03:24;;;;;;;6.07;3.70;;;0.20;99.90;;;;;;4999308;28;20015;-71
2023/12/28 00:05:50;;;;;;;3.65;3.17;;;0.30;99.90;;;;;;4976208;28;20024;-73
2023/12/28 00:08:15;;;;;;;2.78;2.53;;;0.30;99.90;;;;;;4996288;28;20043;-72
2023/12/28 00:10:41;;;;;;;4.97;3.25;;;0.30;99.90;;;;;;4999541;28;20048;-72
2023/12/28 00:13:07;;;;;;;5.57;3.63;;;0.40;99.90;;;;;;4980192;28;20051;-71
2023/12/28 00:15:33;;;;;;;3.70;3.40;;;0.30;99.90;;;;;;5037047;28;20054;-73
2023/12/28 00:17:58;;;;;;;3.90;2.78;;;0.40;99.90;;;;;;4984376;28;20021;-70
2023/12/28 00:20:24;;;;;;;5.70;3.92;;;0.40;99.90;;;;;;5002055;28;20036;-70
2023/12/28 00:22:50;;;;;;;4.30;2.78;;;0.40;99.90;;;;;;5002967;28;20053;-72
2023/12/28 00:25:15;;;;;;;5.95;3.10;;;0.40;99.90;;;;;;4980992;28;20054;-71
2023/12/28 00:27:41;;;;;;;4.53;2.88;;;0.50;99.90;;;;;;4994800;28;20019;-72
2023/12/28 00:30:07;;;;;;;10.98;4.38;;;0.40;99.90;;;;;;4990097;28;20076;-72
2023/12/28 00:32:33;;;;;;;5.13;3.00;;;0.40;99.90;;;;;;4973648;28;20114;-70
2023/12/28 00:34:58;;;;;;;3.72;3.38;;;0.40;99.90;;;;;;5049303;28;20110;-71
2023/12/28 00:37:24;;;;;;;2.75;2.22;;;0.50;99.90;;;;;;5053267;28;20019;-71
2023/12/28 00:39:50;;;;;;;6.63;4.07;;;0.50;99.90;;;;;;5014649;28;20030;-71
2023/12/28 00:42:17;;;;;;;3.28;3.03;;;0.50;99.90;;;;;;5037747;28;20417;-70
2023/12/28 00:44:43;;;;;;;5.60;3.08;;;0.50;99.90;;;;;;5003167;28;20082;-71
2023/12/28 00:47:09;;;;;;;5.57;3.38;;;0.50;99.90;;;;;;5040078;28;21632;-71
2023/12/28 00:49:34;;;;;;;3.60;3.00;;;0.50;99.90;;;;;;5003807;28;20019;-70
2023/12/28 00:52:00;;;;;;;4.82;3.47;;;0.50;99.90;;;;;;4974572;28;20026;-71
2023/12/28 00:54:25;;;;;;;4.57;3.25;;;0.50;99.90;;;;;;5019955;28;20025;-71
2023/12/28 00:56:51;;;;;;;3.63;3.33;;;0.50;99.90;;;;;;4968870;28;20441;-70
2023/12/28 00:59:17;;;;;;;5.40;3.20;;;0.50;99.90;;;;;;4976301;28;20102;-70
2023/12/28 01:01:42;;;;;;;2.47;2.05;;;0.60;99.90;;;;;;4974807;28;20114;-71
2023/12/28 01:04:08;;;;;;;4.35;2.75;;;0.60;99.90;;;;;;4963131;28;20054;-71
2023/12/28 01:06:33;;;;;;;3.53;2.65;;;0.60;99.90;;;;;;4949576;28;20027;-72
2023/12/28 01:08:59;;;;;;;3.17;2.88;;;0.70;99.90;;;;;;4960837;28;20444;-70
2023/12/28 01:11:25;;;;;;;4.35;2.85;;;0.80;99.90;;;;;;4975721;28;20241;-70
2023/12/28 01:13:52;;;;;;;1.65;1.55;;;0.90;99.90;;;;;;5043280;28;20052;-71
2023/12/28 01:16:18;;;;;;;2.90;2.60;;;0.90;99.90;;;;;;5039856;28;20037;-71
2023/12/28 01:18:43;;;;;;;2.65;2.38;;;0.70;99.90;;;;;;5054899;28;20030;-71
2023/12/28 01:21:09;;;;;;;3.13;2.50;;;0.70;99.90;;;;;;5048126;28;20050;-70
2023/12/28 01:23:34;;;;;;;1.60;1.50;;;0.60;99.90;;;;;;5040026;28;20017;-71
2023/12/28 01:26:00;;;;;;;3.00;2.60;;;0.60;99.90;;;;;;5042470;28;20025;-73
2023/12/28 01:28:27;;;;;;;4.90;3.53;;;0.50;99.90;;;;;;5031913;28;20092;-70
2023/12/28 01:30:52;;;;;;;4.22;3.55;;;0.60;99.90;;;;;;5031451;28;20110;-71
2023/12/28 01:33:18;;;;;;;3.80;2.40;;;0.60;99.90;;;;;;5032399;28;20029;-70
2023/12/28 01:35:44;;;;;;;3.25;2.80;;;0.70;99.90;;;;;;5009207;28;20496;-71
2023/12/28 01:38:09;;;;;;;5.00;2.90;;;1.00;99.90;;;;;;5048292;28;20108;-70
2023/12/28 01:40:35;;;;;;;3.95;2.97;;;0.90;99.90;;;;;;5048930;28;20139;-71
2023/12/28 01:43:00;;;;;;;5.45;3.05;;;0.80;99.90;;;;;;5045875;28;20033;-69
2023/12/28 01:45:26;;;;;;;2.17;2.08;;;0.80;99.90;;;;;;5031471;28;20124;-72
2023/12/28 01:47:53;;;;;;;2.72;2.28;;;0.70;99.90;;;;;;5052155;28;20032;-70
2023/12/28 01:50:20;;;;;;;4.35;2.97;;;0.70;99.90;;;;;;5047049;28;20567;-69
2023/12/28 01:52:47;;;;;;;2.83;2.63;;;0.70;99.90;;;;;;5054265;28;20025;-73
2023/12/28 01:55:14;;;;;;;3.40;2.50;;;0.70;99.90;;;;;;5052300;28;20029;-71
2023/12/28 01:57:40;;;;;;;5.45;3.40;;;0.70;99.90;;;;;;5052485;28;20021;-70
2023/12/28 02:00:07;;;;;;;3.60;3.30;;;0.80;99.90;;;;;;5050955;28;20021;-71
2023/12/28 02:02:34;;;;;;;3.75;2.60;;;0.80;99.90;;;;;;5051136;28;20093;-70
2023/12/28 02:05:00;;;;;;;6.05;3.20;;;0.80;99.90;;;;;;5053964;28;20033;-71
2023/12/28 02:07:26;;;;;;;4.70;2.88;;;0.80;99.90;;;;;;5036837;28;20033;-70
2023/12/28 02:09:51;;;;;;;2.50;2.30;;;0.80;99.90;;;;;;5045598;28;20179;-71
2023/12/28 02:12:18;;;;;;;2.65;2.45;;;0.80;99.90;;;;;;4973051;28;20039;-71
2023/12/28 02:14:44;;;;;;;2.70;2.50;;;0.90;99.90;;;;;;4974732;28;20034;-70
2023/12/28 02:17:23;;;;;;;4.88;2.60;;;1.00;99.90;;;;;;4973671;28;20043;-73
2023/12/28 02:19:57;;;;;;;3.13;2.33;;;1.00;99.90;;;;;;4988139;28;20037;-70
2023/12/28 02:22:27;;;;;;;3.42;2.28;;;1.00;99.90;;;;;;4970338;28;20027;-72
2023/12/28 02:25:04;;;;;;;2.45;2.25;;;1.10;99.90;;;;;;4970539;28;20117;-72
2023/12/28 02:27:30;;;;;;;3.72;2.17;;;1.00;99.90;;;;;;4978486;28;20489;-70
2023/12/28 02:29:57;;;;;;;3.08;2.30;;;1.10;99.90;;;;;;4983959;28;20376;-71
2023/12/28 02:35:51;;;;;;;2.03;1.92;;;0.90;99.90;;;;;;4972617;28;20038;-71
2023/12/28 02:38:18;;;;;;;2.33;2.13;;;0.70;99.90;;;;;;4973518;28;20271;-72
2023/12/28 02:40:44;;;;;;;3.38;2.20;;;0.70;99.90;;;;;;4995180;28;20026;-70
2023/12/28 02:43:10;;;;;;;2.05;1.95;;;0.80;99.90;;;;;;4970475;28;20096;-70
2023/12/28 02:45:37;;;;;;;3.15;2.45;;;0.80;99.90;;;;;;4973325;28;20042;-70
2023/12/28 02:48:04;;;;;;;4.07;2.35;;;0.80;99.90;;;;;;4973095;28;20042;-71
2023/12/28 02:50:30;;;;;;;3.25;2.65;;;0.80;99.90;;;;;;4974966;28;20039;-70
2023/12/28 02:52:59;;;;;;;6.40;3.35;;;0.80;99.90;;;;;;4977272;28;20027;-70
2023/12/28 02:55:24;;;;;;;4.88;3.55;;;0.80;99.90;;;;;;4974195;28;20041;-70
2023/12/28 02:57:51;;;;;;;10.45;5.05;;;0.90;99.90;;;;;;4970911;28;20105;-71
2023/12/28 03:00:17;;;;;;;5.63;3.55;;;0.90;99.90;;;;;;4967035;28;20031;-70
2023/12/28 03:02:43;;;;;;;4.80;2.45;;;0.80;99.90;;;;;;4976166;28;20356;-70
2023/12/28 03:05:09;;;;;;;2.63;2.42;;;0.80;99.90;;;;;;4988194;28;20235;-70
2023/12/28 03:07:36;;;;;;;1.95;1.85;;;0.80;99.90;;;;;;4966320;28;20504;-70
2023/12/28 03:10:03;;;;;;;2.38;2.20;;;0.80;99.90;;;;;;4965049;28;20509;-70
2023/12/28 03:12:29;;;;;;;2.03;1.92;;;0.80;99.90;;;;;;4968043;28;20272;-69
2023/12/28 03:14:55;;;;;;;1.50;1.40;;;0.80;99.90;;;;;;4986047;28;20055;-71
2023/12/28 03:17:21;;;;;;;1.88;1.67;;;0.60;99.90;;;;;;4972567;28;20027;-69
2023/12/28 03:19:47;;;;;;;2.50;2.30;;;0.30;99.90;;;;;;4967815;28;20045;-70
2023/12/28 03:22:13;;;;;;;3.90;2.63;;;0.20;99.90;;;;;;4991904;28;20114;-70
2023/12/28 03:24:39;;;;;;;3.97;2.33;;;0.20;99.90;;;;;;4969566;28;20027;-71
2023/12/28 03:27:05;;;;;;;3.97;2.72;;;0.20;99.90;;;;;;4963174;28;20031;-70
2023/12/28 03:29:31;;;;;;;6.88;4.30;;;0.20;99.90;;;;;;4967285;28;20030;-73
2023/12/28 03:31:57;;;;;;;10.98;4.75;;;0.30;99.90;;;;;;4973363;28;20038;-71
2023/12/28 03:34:23;;;;;;;2.63;2.20;;;0.40;99.90;;;;;;4976017;28;20027;-71
2023/12/28 03:36:49;;;;;;;2.80;2.47;;;0.40;99.90;;;;;;4972130;28;20108;-71
2023/12/28 03:39:15;;;;;;;2.25;1.83;;;0.40;99.90;;;;;;4967132;28;20027;-71
2023/12/28 03:41:41;;;;;;;1.20;1.20;;;0.40;99.90;;;;;;4970998;28;20060;-71
2023/12/28 03:44:06;;;;;;;2.65;2.17;;;0.30;99.90;;;;;;4978120;28;20038;-70
2023/12/28 03:46:32;;;;;;;2.47;1.83;;;0.20;99.90;;;;;;4974242;28;20047;-70
2023/12/28 03:48:58;;;;;;;4.50;2.58;;;0.10;99.90;;;;;;4968811;28;20113;-70
2023/12/28 03:51:24;;;;;;;3.17;2.63;;;0.00;99.90;;;;;;4972824;28;20490;-70
2023/12/28 03:53:49;;;;;;;2.38;2.28;;;-0.10;99.90;;;;;;4979324;28;20142;-69
2023/12/28 03:56:25;;;;;;;2.40;2.28;;;-0.10;99.90;;;;;;4983126;28;20025;-71
2023/12/28 03:58:51;;;;;;;1.85;1.75;;;-0.10;99.90;;;;;;4968431;28;20031;-70
2023/12/28 04:01:21;;;;;;;1.77;1.67;;;0.00;99.90;;;;;;4995472;28;20038;-70
2023/12/28 04:03:47;;;;;;;2.08;1.90;;;0.00;99.90;;;;;;4973867;28;20113;-70
2023/12/28 04:06:14;;;;;;;1.70;1.60;;;0.10;99.90;;;;;;4965774;28;20103;-71
2023/12/28 04:08:41;;;;;;;1.92;1.83;;;0.10;99.90;;;;;;4970696;28;20501;-70
2023/12/28 04:11:06;;;;;;;2.70;2.50;;;0.10;99.90;;;;;;4993437;28;20528;-70
2023/12/28 04:13:34;;;;;;;3.55;2.10;;;0.20;99.90;;;;;;4977062;28;20055;-70
2023/12/28 04:15:59;;;;;;;1.98;1.88;;;0.20;99.90;;;;;;4982916;28;20035;-71
2023/12/28 04:18:25;;;;;;;2.45;2.25;;;0.40;99.90;;;;;;4968856;28;20524;-72
2023/12/28 04:20:51;;;;;;;2.70;2.50;;;0.50;99.90;;;;;;5027157;28;20038;-71
2023/12/28 04:23:16;;;;;;;2.25;2.10;;;0.70;99.90;;;;;;4970909;28;20481;-71
2023/12/28 04:25:42;;;;;;;2.17;1.98;;;0.90;99.90;;;;;;4984109;28;20030;-72
2023/12/28 04:28:07;;;;;;;2.00;1.80;;;1.10;99.90;;;;;;4991301;28;20065;-72
2023/12/28 04:30:33;;;;;;;2.33;1.90;;;1.20;99.90;;;;;;4987555;28;20034;-72
2023/12/28 04:33:00;;;;;;;2.33;2.13;;;1.10;99.90;;;;;;4985857;28;20030;-70
2023/12/28 04:35:26;;;;;;;2.30;2.20;;;1.00;99.90;;;;;;4973008;28;20019;-70
2023/12/28 04:37:51;;;;;;;2.10;2.00;;;1.00;99.90;;;;;;4985430;28;20457;-71
2023/12/28 04:40:17;;;;;;;1.95;1.83;;;1.00;99.90;;;;;;4981965;28;20492;-71
2023/12/28 04:42:43;;;;;;;2.63;2.08;;;1.00;99.90;;;;;;4971193;28;20098;-70
2023/12/28 04:45:12;;;;;;;2.50;2.00;;;1.10;99.90;;;;;;4971025;28;20027;-70
2023/12/28 04:47:38;;;;;;;1.70;1.35;;;1.00;99.90;;;;;;4976417;28;20651;-70
2023/12/28 04:50:05;;;;;;;2.25;1.90;;;1.00;99.90;;;;;;4982453;28;20035;-70
2023/12/28 04:52:31;;;;;;;2.67;2.00;;;1.00;99.90;;;;;;4971039;28;20035;-70
2023/12/28 04:54:57;;;;;;;2.22;2.03;;;1.00;99.90;;;;;;4972828;28;20042;-71
2023/12/28 04:57:27;;;;;;;0.98;0.98;;;1.00;99.90;;;;;;4977556;28;20027;-71
2023/12/28 04:59:53;;;;;;;3.50;2.10;;;1.10;99.90;;;;;;4984436;28;20027;-71
2023/12/28 05:02:19;;;;;;;2.20;2.00;;;1.10;99.90;;;;;;4976627;28;20039;-70
2023/12/28 05:04:44;;;;;;;2.25;1.98;;;1.00;99.90;;;;;;4974325;28;20106;-71
2023/12/28 05:07:10;;;;;;;2.83;2.38;;;1.10;99.90;;;;;;4982526;28;20023;-71
2023/12/28 05:09:36;;;;;;;5.90;2.85;;;1.10;99.90;;;;;;4979488;28;20060;-70
2023/12/28 05:12:02;;;;;;;3.10;2.60;;;1.10;99.90;;;;;;4969770;28;20054;-73
2023/12/28 05:14:28;;;;;;;10.77;5.43;;;1.20;99.90;;;;;;4968728;28;20254;-70
2023/12/28 05:16:53;;;;;;;17.58;9.65;;;1.20;99.90;;;;;;4987758;28;20233;-70
2023/12/28 05:19:19;;;;;;;16.77;8.52;;;1.40;99.90;;;;;;4971005;28;20034;-70
2023/12/28 05:21:46;;;;;;;15.20;9.07;;;1.60;99.90;;;;;;4987776;28;20027;-70
2023/12/28 05:24:13;;;;;;;9.50;5.88;;;1.70;99.90;;;;;;4976292;28;20350;-74
2023/12/28 05:26:38;;;;;;;13.27;6.50;;;1.70;99.90;;;;;;4975855;28;20038;-71
2023/12/28 05:29:04;;;;;;;9.73;5.28;;;1.80;99.90;;;;;;4974081;28;20031;-71
2023/12/28 05:31:29;;;;;;;10.43;5.55;;;1.80;99.90;;;;;;5002511;28;20035;-71
2023/12/28 05:33:56;;;;;;;8.88;5.38;;;1.80;99.90;;;;;;4985843;28;20035;-72
2023/12/28 05:36:22;;;;;;;12.27;6.38;;;1.90;99.90;;;;;;4973242;28;20034;-71
2023/12/28 05:38:49;;;;;;;10.15;5.60;;;1.90;99.90;;;;;;4974043;28;20382;-72
2023/12/28 05:41:15;;;;;;;8.82;3.92;;;2.00;99.90;;;;;;4977607;28;20031;-71
2023/12/28 05:43:41;;;;;;;6.05;4.03;;;2.00;99.90;;;;;;4976814;28;20035;-72
2023/12/28 05:46:06;;;;;;;8.50;6.63;;;2.20;99.90;;;;;;4976397;28;20096;-71
2023/12/28 05:48:32;;;;;;;8.05;7.25;;;2.20;99.90;;;;;;4983121;28;20076;-71
2023/12/28 05:50:58;;;;;;;5.25;4.85;;;2.20;99.90;;;;;;4978719;28;20053;-73
2023/12/28 05:53:24;;;;;;;3.80;2.88;;;2.20;99.90;;;;;;4974301;28;20050;-71
2023/12/28 05:55:50;;;;;;;2.90;2.08;;;2.20;99.90;;;;;;5004383;28;20412;-71
2023/12/28 05:58:16;;;;;;;3.03;2.70;;;2.20;99.90;;;;;;4977591;28;20023;-71
2023/12/28 06:00:42;;;;;;;2.40;2.20;;;2.20;99.90;;;;;;4979148;28;20030;-70
2023/12/28 06:03:08;;;;;;;4.60;3.53;;;2.30;99.90;;;;;;4996356;28;20038;-71
2023/12/28 06:05:34;;;;;;;3.10;2.40;;;2.20;99.90;;;;;;4977761;28;20029;-72
2023/12/28 06:08:00;;;;;;;2.95;2.45;;;2.20;99.90;;;;;;4980788;28;20400;-72
2023/12/28 06:10:25;;;;;;;7.65;4.18;;;2.10;99.90;;;;;;4983366;28;20217;-71
2023/12/28 06:12:51;;;;;;;6.18;3.80;;;2.20;99.90;;;;;;5022542;28;20090;-71
2023/12/28 06:15:17;;;;;;;8.02;6.38;;;2.20;99.90;;;;;;5025294;28;20047;-73
2023/12/28 06:17:42;;;;;;;10.98;8.15;;;2.30;99.90;;;;;;4960180;28;20066;-72
2023/12/28 06:20:09;;;;;;;8.18;6.63;;;2.20;99.90;;;;;;4970843;28;20043;-71
2023/12/28 06:22:37;;;;;;;9.05;6.93;;;2.10;99.90;;;;;;4982130;28;20026;-72
2023/12/28 06:25:04;;;;;;;6.85;5.28;;;2.20;99.90;;;;;;4978123;28;20480;-72
2023/12/28 06:27:30;;;;;;;4.70;3.45;;;2.10;99.90;;;;;;5041714;28;20049;-71
2023/12/28 06:29:56;;;;;;;3.00;2.80;;;2.20;99.90;;;;;;4981631;28;20043;-71
2023/12/28 06:32:21;;;;;;;2.70;2.50;;;2.10;99.90;;;;;;4953907;28;20501;-74
2023/12/28 06:34:48;;;;;;;4.00;2.85;;;2.10;99.90;;;;;;4971518;28;20036;-74
2023/12/28 06:37:14;;;;;;;3.08;2.70;;;2.10;99.90;;;;;;4963817;28;20099;-69
2023/12/28 06:39:39;;;;;;;3.45;3.15;;;2.10;99.90;;;;;;4964943;28;20059;-72
2023/12/28 06:42:05;;;;;;;5.25;2.78;;;2.20;99.90;;;;;;4980801;28;20019;-73
2023/12/28 06:44:31;;;;;;;5.78;3.38;;;2.10;99.90;;;;;;4963164;28;20038;-71
2023/12/28 06:46:56;;;;;;;1.65;1.52;;;2.20;99.90;;;;;;4960282;28;20027;-74
2023/12/28 06:49:24;;;;;;;3.50;2.20;;;2.20;99.90;;;;;;4989068;28;20029;-73
2023/12/28 06:51:50;;;;;;;4.50;3.03;;;2.00;99.90;;;;;;4981421;28;20042;-73
2023/12/28 06:54:16;;;;;;;7.50;3.70;;;2.00;99.90;;;;;;4928853;28;20031;-71
2023/12/28 06:56:41;;;;;;;9.93;5.88;;;2.00;99.90;;;;;;4941371;28;20037;-71
2023/12/28 06:59:11;;;;;;;9.88;5.60;;;2.00;99.90;;;;;;4967943;28;20050;-70
2023/12/28 07:01:40;;;;;;;19.60;10.10;;;2.00;99.90;;;;;;4947246;28;20031;-70
2023/12/28 07:04:05;;;;;;;24.35;11.77;;;2.00;99.90;;;;;;5006747;28;20027;-71
2023/12/28 07:06:31;;;;;;;13.15;6.47;;;2.10;99.90;;;;;;4956232;28;20027;-70
2023/12/28 07:08:57;;;;;;;30.42;12.60;;;2.10;99.90;;;;;;5016061;28;20047;-71
2023/12/28 07:11:23;;;;;;;14.63;7.65;;;2.00;99.90;;;;;;4979865;28;20046;-70
2023/12/28 07:13:48;;;;;;;13.38;7.22;;;1.90;99.90;;;;;;4945603;28;20038;-71
2023/12/28 07:16:15;;;;;;;4.95;3.40;;;1.90;99.90;;;;;;4984206;28;20031;-70
2023/12/28 07:18:41;;;;;;;6.50;3.13;;;2.00;99.90;;;;;;4953899;28;20028;-70
2023/12/28 07:21:11;;;;;;;58.13;27.33;;;2.00;99.90;;;;;;4947549;28;20534;-70
2023/12/28 07:23:37;;;;;;;45.03;24.05;;;2.00;99.90;;;;;;4951654;28;20020;-71
2023/12/28 07:26:03;;;;;;;16.00;11.15;;;2.20;99.90;;;;;;4961621;28;20499;-71
2023/12/28 07:28:29;;;;;;;7.10;4.85;;;2.20;99.90;;;;;;4960970;28;20171;-70
2023/12/28 07:30:55;;;;;;;6.55;4.13;;;2.30;99.90;;;;;;4967184;28;20433;-70
2023/12/28 07:33:20;;;;;;;4.05;3.40;;;2.40;99.90;;;;;;4974910;28;20033;-71
2023/12/28 07:35:46;;;;;;;7.70;4.78;;;2.50;99.90;;;;;;4970526;28;20039;-70
2023/12/28 07:38:12;;;;;;;4.88;3.20;;;2.50;99.90;;;;;;4957712;28;20096;-71
2023/12/28 07:40:38;;;;;;;3.25;2.08;;;2.40;99.90;;;;;;4962178;28;20460;-70
2023/12/28 07:43:03;;;;;;;5.88;2.78;;;2.40;99.90;;;;;;4965422;28;20774;-70
2023/12/28 07:45:30;;;;;;;3.65;3.00;;;2.40;99.90;;;;;;4955599;28;20043;-71
2023/12/28 07:47:56;;;;;;;4.25;3.03;;;2.40;99.90;;;;;;4965538;28;20508;-71
2023/12/28 07:50:22;;;;;;;4.07;3.38;;;2.50;99.90;;;;;;4960280;28;20027;-71
2023/12/28 07:52:48;;;;;;;5.10;3.40;;;2.70;99.90;;;;;;4955122;28;20093;-72
2023/12/28 07:55:14;;;;;;;3.28;2.70;;;2.70;99.90;;;;;;4974944;28;20266;-71
2023/12/28 07:57:41;;;;;;;3.78;3.13;;;2.80;99.90;;;;;;4968821;28;20039;-71
2023/12/28 08:00:07;;;;;;;4.10;2.95;;;2.80;99.90;;;;;;4949057;28;20500;-71
2023/12/28 08:02:33;;;;;;;7.15;4.03;;;2.90;99.90;;;;;;4959449;28;20027;-71
2023/12/28 08:04:59;;;;;;;10.35;4.18;;;3.10;99.90;;;;;;4975254;28;20030;-71
2023/12/28 08:07:25;;;;;;;5.07;3.90;;;3.10;99.90;;;;;;4964533;28;20027;-72
2023/12/28 08:09:50;;;;;;;5.88;4.50;;;3.20;99.90;;;;;;4969994;28;20587;-71
2023/12/28 08:12:17;;;;;;;17.15;8.70;;;3.40;99.90;;;;;;4945051;28;20137;-71
2023/12/28 08:14:43;;;;;;;52.20;26.02;;;3.50;99.90;;;;;;4964521;28;20046;-71
2023/12/28 08:17:09;;;;;;;22.25;11.15;;;3.60;99.90;;;;;;4969152;28;20796;-70
2023/12/28 08:19:35;;;;;;;45.70;25.08;;;3.80;99.90;;;;;;5000820;28;20036;-71
2023/12/28 08:22:00;;;;;;;23.55;14.45;;;3.90;99.90;;;;;;4956235;28;20394;-71
2023/12/28 08:24:26;;;;;;;14.10;10.52;;;4.00;99.90;;;;;;4956609;28;20023;-72
2023/12/28 08:26:52;;;;;;;10.35;6.65;;;4.00;99.90;;;;;;4952233;28;20513;-71
2023/12/28 08:29:18;;;;;;;9.52;6.80;;;4.10;99.90;;;;;;4981649;28;20031;-71
2023/12/28 08:31:44;;;;;;;5.57;3.65;;;4.20;99.90;;;;;;4975111;28;20532;-72
2023/12/28 08:34:10;;;;;;;4.97;2.75;;;4.30;99.90;;;;;;4976594;28;20084;-71
2023/12/28 08:36:35;;;;;;;3.05;2.70;;;4.40;99.90;;;;;;4980657;28;20411;-71
2023/12/28 08:39:01;;;;;;;4.65;2.47;;;4.50;99.90;;;;;;4972954;28;20274;-71
2023/12/28 08:41:27;;;;;;;2.90;2.65;;;4.70;99.90;;;;;;4982447;28;20087;-70
2023/12/28 08:43:56;;;;;;;5.32;2.45;;;4.80;99.90;;;;;;4970759;28;20114;-71
2023/12/28 08:46:24;;;;;;;3.63;2.47;;;4.90;99.90;;;;;;4972571;28;20037;-72
2023/12/28 08:48:50;;;;;;;3.53;2.80;;;5.00;99.90;;;;;;5026847;28;20045;-72
2023/12/28 08:51:16;;;;;;;2.65;2.45;;;5.20;99.90;;;;;;5000928;28;20447;-71
2023/12/28 08:53:42;;;;;;;3.65;2.65;;;5.40;99.90;;;;;;5006089;28;20046;-70
2023/12/28 08:56:19;;;;;;;4.13;2.30;;;5.60;99.90;;;;;;4963329;28;20027;-71
2023/12/28 08:58:48;;;;;;;3.97;2.70;;;5.70;99.90;;;;;;4977671;28;20053;-73
2023/12/28 09:01:35;;;;;;;3.25;2.30;;;5.80;99.90;;;;;;4964953;28;20031;-72
2023/12/28 09:04:01;;;;;;;3.78;2.20;;;5.90;99.90;;;;;;5028892;28;20035;-73
2023/12/28 09:06:27;;;;;;;3.60;2.53;;;5.90;99.90;;;;;;4980721;28;20507;-71
2023/12/28 09:08:56;;;;;;;5.15;2.78;;;6.10;99.90;;;;;;4984981;28;20038;-71
2023/12/28 09:11:22;;;;;;;4.28;2.50;;;6.30;99.90;;;;;;4973577;28;20068;-70
2023/12/28 09:13:48;;;;;;;6.15;3.20;;;6.40;99.90;;;;;;4963574;28;20042;-70
2023/12/28 09:16:14;;;;;;;5.28;2.67;;;6.50;99.90;;;;;;4953859;28;20027;-71
2023/12/28 09:18:41;;;;;;;4.28;3.08;;;6.70;99.90;;;;;;5043788;28;20030;-70
2023/12/28 09:21:08;;;;;;;3.55;2.60;;;6.80;99.90;;;;;;4961102;28;20016;-70
2023/12/28 09:23:35;;;;;;;5.93;2.78;;;7.00;99.90;;;;;;4959768;28;20031;-71
2023/12/28 09:26:04;;;;;;;4.07;2.30;;;7.00;99.90;;;;;;4963946;28;20106;-71
2023/12/28 09:28:34;;;;;;;3.05;2.50;;;7.10;99.90;;;;;;4964738;28;20039;-71
2023/12/28 09:31:03;;;;;;;3.58;2.20;;;7.20;99.90;;;;;;4960802;28;20553;-71
2023/12/28 09:33:29;;;;;;;4.30;2.50;;;7.30;99.90;;;;;;4956430;28;20475;-73
2023/12/28 09:35:55;;;;;;;2.50;2.10;;;7.30;99.90;;;;;;4956811;28;20089;-71
2023/12/28 09:38:22;;;;;;;2.95;2.30;;;7.40;99.90;;;;;;4996050;28;20038;-71
2023/12/28 09:40:51;;;;;;;2.45;2.25;;;7.40;99.90;;;;;;4969314;28;20027;-71
2023/12/28 09:43:36;;;;;;;4.43;2.30;;;7.60;99.90;;;;;;4957874;28;20019;-71
2023/12/28 09:46:07;;;;;;;2.20;2.00;;;7.70;99.90;;;;;;4971159;28;20066;-71
2023/12/28 09:48:33;;;;;;;2.28;1.90;;;7.70;99.90;;;;;;4952030;28;20601;-71
2023/12/28 09:50:59;;;;;;;5.22;2.20;;;7.80;99.90;;;;;;4990212;28;20112;-70
2023/12/28 09:53:25;;;;;;;3.67;2.53;;;7.80;99.90;;;;;;4981208;28;20023;-71
2023/12/28 09:55:51;;;;;;;2.67;2.10;;;7.90;99.90;;;;;;4952638;28;20113;-71
2023/12/28 09:58:19;;;;;;;3.05;2.00;;;8.00;99.90;;;;;;4968361;28;20398;-71
2023/12/28 10:00:46;;;;;;;1.90;1.70;;;8.10;99.90;;;;;;4973594;28;20042;-71
2023/12/28 10:03:16;;;;;;;2.60;2.05;;;8.20;99.90;;;;;;4972270;28;20136;-71
2023/12/28 10:05:43;;;;;;;3.08;2.05;;;8.20;99.90;;;;;;4975975;28;20035;-70
2023/12/28 10:08:11;;;;;;;2.75;2.08;;;8.20;99.90;;;;;;4971998;28;20497;-71
2023/12/28 10:10:36;;;;;;;5.32;2.40;;;8.30;99.90;;;;;;4986345;28;20048;-72
2023/12/28 10:13:02;;;;;;;3.60;3.20;;;8.30;99.90;;;;;;4976754;28;20548;-71
2023/12/28 10:15:30;;;;;;;3.20;2.28;;;8.40;99.90;;;;;;5000064;28;20059;-72
2023/12/28 10:17:56;;;;;;;3.30;2.00;;;8.40;99.90;;;;;;4977059;28;20019;-71
2023/12/28 10:20:21;;;;;;;2.88;2.28;;;8.40;99.90;;;;;;4979977;28;20050;-71
2023/12/28 10:22:47;;;;;;;3.47;2.25;;;8.50;99.90;;;;;;4977823;28;20031;-71
2023/12/28 10:25:13;;;;;;;2.85;1.95;;;8.50;99.90;;;;;;4983987;28;20096;-70
2023/12/28 10:27:42;;;;;;;2.55;2.03;;;8.60;99.90;;;;;;5026253;28;20489;-71
2023/12/28 10:30:12;;;;;;;2.80;2.28;;;8.60;99.90;;;;;;4982554;28;20546;-71
2023/12/28 10:32:41;;;;;;;5.75;3.28;;;8.70;99.90;;;;;;5017813;28;20041;-71
2023/12/28 10:35:07;;;;;;;4.38;2.58;;;8.70;99.90;;;;;;4978525;28;20501;-72
2023/12/28 10:37:35;;;;;;;3.72;2.50;;;8.70;99.90;;;;;;5010767;28;20169;-74
2023/12/28 10:40:08;;;;;;;11.45;6.18;;;8.80;99.90;;;;;;5011548;28;20023;-71
2023/12/28 10:42:44;;;;;;;9.40;5.03;;;8.80;99.90;;;;;;4977085;28;20023;-71
2023/12/28 10:45:11;;;;;;;5.65;3.40;;;8.90;99.90;;;;;;4986704;28;20031;-70
2023/12/28 10:47:44;;;;;;;5.20;2.85;;;8.90;99.90;;;;;;5004921;28;20389;-71
2023/12/28 10:50:11;;;;;;;2.78;2.45;;;8.90;99.90;;;;;;4970340;28;20131;-70
2023/12/28 10:52:38;;;;;;;3.95;2.72;;;9.00;99.90;;;;;;4962147;28;20023;-70
2023/12/28 10:55:25;;;;;;;3.22;2.70;;;9.00;99.90;;;;;;4978174;28;20548;-70
2023/12/28 10:58:11;;;;;;;2.17;1.80;;;9.00;99.90;;;;;;4968000;28;20031;-71
2023/12/28 11:00:47;;;;;;;5.00;2.05;;;9.10;99.90;;;;;;4989040;28;20479;-70
2023/12/28 11:03:17;;;;;;;2.83;1.88;;;9.10;99.90;;;;;;4985408;28;20027;-70
2023/12/28 11:05:45;;;;;;;2.22;2.03;;;9.10;99.90;;;;;;4975180;28;20041;-70
2023/12/28 11:08:12;;;;;;;3.40;2.13;;;9.10;99.90;;;;;;5021800;28;20084;-70
2023/12/28 11:10:38;;;;;;;2.60;1.90;;;9.10;99.90;;;;;;4961488;28;20051;-70
2023/12/28 11:13:05;;;;;;;2.35;1.90;;;9.10;99.90;;;;;;4982470;28;20035;-70
2023/12/28 11:15:32;;;;;;;2.22;2.00;;;9.10;99.90;;;;;;4953643;28;20638;-70
2023/12/28 11:17:59;;;;;;;1.80;1.67;;;9.10;99.90;;;;;;4954739;28;20379;-71
2023/12/28 11:20:25;;;;;;;3.65;2.50;;;9.10;99.90;;;;;;4975134;28;20090;-70
2023/12/28 11:22:51;;;;;;;8.35;4.90;;;9.10;99.90;;;;;;4979843;28;20029;-70
2023/12/28 11:25:18;;;;;;;4.38;2.53;;;9.10;99.90;;;;;;4976336;28;20106;-71
2023/12/28 11:27:46;;;;;;;8.00;4.13;;;9.10;99.90;;;;;;4980535;28;20137;-71
2023/12/28 11:30:13;;;;;;;5.73;3.53;;;9.00;99.90;;;;;;5022839;28;20176;-71
2023/12/28 11:32:43;;;;;;;10.75;6.72;;;9.00;99.90;;;;;;4979326;28;20290;-72
2023/12/28 11:35:10;;;;;;;9.35;7.88;;;9.00;99.90;;;;;;4986231;28;20094;-71
2023/12/28 11:37:39;;;;;;;4.15;3.53;;;9.00;99.90;;;;;;4976736;28;20062;-71
2023/12/28 11:40:19;;;;;;;4.60;2.00;;;9.00;99.90;;;;;;4955799;28;20123;-70
2023/12/28 11:43:02;;;;;;;3.25;2.92;;;9.00;99.90;;;;;;4959354;28;20484;-71
2023/12/28 11:45:30;;;;;;;2.88;2.60;;;9.00;99.90;;;;;;4955881;28;20043;-71
2023/12/28 11:48:03;;;;;;;2.33;2.13;;;9.10;99.90;;;;;;4955735;28;20037;-71
2023/12/28 11:50:28;;;;;;;2.00;1.60;;;9.10;99.90;;;;;;4962095;28;20033;-71
2023/12/28 11:52:54;;;;;;;1.60;1.50;;;9.10;99.90;;;;;;4958648;28;20504;-71
2023/12/28 11:55:23;;;;;;;2.78;1.60;;;9.20;99.90;;;;;;4955285;28;20107;-71
2023/12/28 11:57:49;;;;;;;2.28;1.50;;;9.20;99.90;;;;;;4957082;28;20442;-70
2023/12/28 12:00:15;;;;;;;2.03;1.70;;;9.20;99.90;;;;;;4951519;28;20103;-71
2023/12/28 12:02:46;;;;;;;2.97;1.70;;;9.20;99.90;;;;;;4951448;28;20043;-70
2023/12/28 12:05:12;;;;;;;2.30;1.50;;;9.20;99.90;;;;;;4950835;28;20023;-71
2023/12/28 12:07:38;;;;;;;3.13;1.70;;;9.20;99.90;;;;;;4952875;28;20066;-70
2023/12/28 12:10:04;;;;;;;3.28;1.50;;;9.20;99.90;;;;;;4951146;28;20042;-70
2023/12/28 12:12:30;;;;;;;2.25;1.40;;;9.20;99.90;;;;;;4981368;28;20408;-70
2023/12/28 12:14:56;;;;;;;1.50;1.40;;;9.20;99.90;;;;;;4986840;28;20080;-71
2023/12/28 12:17:22;;;;;;;2.33;1.60;;;9.20;99.90;;;;;;4969140;28;20542;-70
2023/12/28 12:19:50;;;;;;;1.55;1.25;;;9.20;99.90;;;;;;4952545;28;20070;-71
2023/12/28 12:22:17;;;;;;;1.48;1.38;;;9.20;99.90;;;;;;4969051;28;20019;-71
2023/12/28 12:24:46;;;;;;;2.88;1.52;;;9.20;99.90;;;;;;4953047;28;20031;-71
2023/12/28 12:27:12;;;;;;;2.08;1.30;;;9.20;99.90;;;;;;4956854;28;20493;-74
2023/12/28 12:29:37;;;;;;;1.60;1.50;;;9.20;99.90;;;;;;4960570;28;20065;-71
2023/12/28 12:32:03;;;;;;;2.22;1.35;;;9.30;99.90;;;;;;4947297;28;20035;-71
2023/12/28 12:34:29;;;;;;;1.40;1.30;;;9.30;99.90;;;;;;4954080;28;20132;-73
2023/12/28 12:36:55;;;;;;;2.17;1.45;;;9.30;99.90;;;;;;4969700;28;20037;-72
2023/12/28 12:39:24;;;;;;;1.52;1.30;;;9.20;99.90;;;;;;4961879;28;20032;-72
2023/12/28 12:41:50;;;;;;;2.10;1.45;;;9.30;99.90;;;;;;4951686;28;20054;-71
2023/12/28 12:44:18;;;;;;;2.50;1.80;;;9.30;99.90;;;;;;4965626;28;20043;-70
2023/12/28 12:46:44;;;;;;;;;;;9.30;99.90;;;;;;4957176;28;20039;-72
2023/12/28 12:49:10;;;;;;;1.80;1.70;;;9.30;99.90;;;;;;4993904;28;19919;-71
2023/12/28 12:51:36;;;;;;;1.60;1.50;;;9.40;99.90;;;;;;4963847;28;20506;-71
2023/12/28 12:54:03;;;;;;;1.70;1.60;;;9.30;99.90;;;;;;4975095;28;20019;-71
2023/12/28 12:56:29;;;;;;;1.67;1.58;;;9.40;99.90;;;;;;4937934;28;20058;-71